sensor_id;sensor_type;location;lat;lon;timestamp;temperature;humidity
22714;DHT22;11524;50.846;4.326;2022-12-07T00:01:10;16.00;63.90
22714;DHT22;11524;50.846;4.326;2022-12-07T00:03:37;16.10;63.80
22714;DHT22;11524;50.846;4.326;2022-12-07T00:06:03;16.10;63.80
22714;DHT22;11524;50.846;4.326;2022-12-07T00:08:30;16.10;64.10
22714;DHT22;11524;50.846;4.326;2022-12-07T00:11:04;16.10;63.90
22714;DHT22;11524;50.846;4.326;2022-12-07T00:13:31;16.00;63.90
22714;DHT22;11524;50.846;4.326;2022-12-07T00:16:01;16.10;64.20
22714;DHT22;11524;50.846;4.326;2022-12-07T00:18:27;16.00;64.20
22714;DHT22;11524;50.846;4.326;2022-12-07T00:20:52;16.00;64.40
22714;DHT22;11524;50.846;4.326;2022-12-07T00:23:18;16.10;64.50
22714;DHT22;11524;50.846;4.326;2022-12-07T00:25:43;16.00;65.20
22714;DHT22;11524;50.846;4.326;2022-12-07T00:28:09;16.00;64.30
22714;DHT22;11524;50.846;4.326;2022-12-07T00:30:36;16.10;64.40
22714;DHT22;11524;50.846;4.326;2022-12-07T00:33:01;16.00;64.50
22714;DHT22;11524;50.846;4.326;2022-12-07T00:35:27;16.00;64.30
22714;DHT22;11524;50.846;4.326;2022-12-07T00:37:52;16.10;64.70
22714;DHT22;11524;50.846;4.326;2022-12-07T00:40:19;16.00;64.70
22714;DHT22;11524;50.846;4.326;2022-12-07T00:42:44;16.00;64.80
22714;DHT22;11524;50.846;4.326;2022-12-07T00:45:10;16.00;64.80
22714;DHT22;11524;50.846;4.326;2022-12-07T00:47:35;16.00;64.90
22714;DHT22;11524;50.846;4.326;2022-12-07T00:50:01;16.00;65.00
22714;DHT22;11524;50.846;4.326;2022-12-07T00:52:27;16.00;65.20
22714;DHT22;11524;50.846;4.326;2022-12-07T00:54:52;16.00;65.00
22714;DHT22;11524;50.846;4.326;2022-12-07T00:57:18;15.90;65.10
22714;DHT22;11524;50.846;4.326;2022-12-07T00:59:43;16.00;65.30
22714;DHT22;11524;50.846;4.326;2022-12-07T01:02:09;16.00;65.30
22714;DHT22;11524;50.846;4.326;2022-12-07T01:04:34;16.00;65.20
22714;DHT22;11524;50.846;4.326;2022-12-07T01:07:00;15.90;65.40
22714;DHT22;11524;50.846;4.326;2022-12-07T01:09:25;16.00;65.40
22714;DHT22;11524;50.846;4.326;2022-12-07T01:11:51;16.00;65.60
22714;DHT22;11524;50.846;4.326;2022-12-07T01:14:17;16.00;65.50
22714;DHT22;11524;50.846;4.326;2022-12-07T01:16:42;16.00;65.50
22714;DHT22;11524;50.846;4.326;2022-12-07T01:19:08;15.90;65.80
22714;DHT22;11524;50.846;4.326;2022-12-07T01:21:35;15.90;65.80
22714;DHT22;11524;50.846;4.326;2022-12-07T01:24:09;15.90;65.80
22714;DHT22;11524;50.846;4.326;2022-12-07T01:26:35;15.90;65.90
22714;DHT22;11524;50.846;4.326;2022-12-07T01:29:00;15.90;66.00
22714;DHT22;11524;50.846;4.326;2022-12-07T01:31:27;15.90;65.80
22714;DHT22;11524;50.846;4.326;2022-12-07T01:33:55;15.90;65.80
22714;DHT22;11524;50.846;4.326;2022-12-07T01:36:30;15.90;65.80
22714;DHT22;11524;50.846;4.326;2022-12-07T01:39:01;15.90;65.70
22714;DHT22;11524;50.846;4.326;2022-12-07T01:41:29;15.90;65.50
22714;DHT22;11524;50.846;4.326;2022-12-07T01:44:13;16.00;65.90
22714;DHT22;11524;50.846;4.326;2022-12-07T01:46:39;15.90;65.90
22714;DHT22;11524;50.846;4.326;2022-12-07T01:49:08;15.90;65.90
22714;DHT22;11524;50.846;4.326;2022-12-07T01:51:38;15.90;66.00
22714;DHT22;11524;50.846;4.326;2022-12-07T01:54:04;15.80;65.90
22714;DHT22;11524;50.846;4.326;2022-12-07T01:56:31;15.90;65.80
22714;DHT22;11524;50.846;4.326;2022-12-07T01:58:58;15.90;65.90
22714;DHT22;11524;50.846;4.326;2022-12-07T02:01:25;15.80;66.00
22714;DHT22;11524;50.846;4.326;2022-12-07T02:03:51;15.90;61.90
22714;DHT22;11524;50.846;4.326;2022-12-07T02:06:21;15.80;61.30
22714;DHT22;11524;50.846;4.326;2022-12-07T02:08:47;15.80;61.40
22714;DHT22;11524;50.846;4.326;2022-12-07T02:11:14;15.70;61.60
22714;DHT22;11524;50.846;4.326;2022-12-07T02:13:42;15.80;61.80
22714;DHT22;11524;50.846;4.326;2022-12-07T02:19:33;15.70;61.90
22714;DHT22;11524;50.846;4.326;2022-12-07T02:30:45;15.60;61.10
22714;DHT22;11524;50.846;4.326;2022-12-07T02:33:16;15.60;61.40
22714;DHT22;11524;50.846;4.326;2022-12-07T02:35:54;15.60;61.10
22714;DHT22;11524;50.846;4.326;2022-12-07T02:41:15;15.60;60.80
22714;DHT22;11524;50.846;4.326;2022-12-07T02:43:46;15.50;60.70
22714;DHT22;11524;50.846;4.326;2022-12-07T02:46:37;15.60;61.30
22714;DHT22;11524;50.846;4.326;2022-12-07T02:49:05;15.50;60.90
22714;DHT22;11524;50.846;4.326;2022-12-07T02:51:33;15.60;61.30
22714;DHT22;11524;50.846;4.326;2022-12-07T02:53:59;15.50;61.20
22714;DHT22;11524;50.846;4.326;2022-12-07T02:59:40;15.50;60.60
22714;DHT22;11524;50.846;4.326;2022-12-07T03:02:50;15.50;61.30
22714;DHT22;11524;50.846;4.326;2022-12-07T03:11:10;15.50;62.00
22714;DHT22;11524;50.846;4.326;2022-12-07T03:18:58;15.50;61.90
22714;DHT22;11524;50.846;4.326;2022-12-07T03:21:32;15.50;61.60
22714;DHT22;11524;50.846;4.326;2022-12-07T03:24:04;15.50;61.60
22714;DHT22;11524;50.846;4.326;2022-12-07T03:26:36;15.50;61.50
22714;DHT22;11524;50.846;4.326;2022-12-07T03:29:13;15.40;61.90
22714;DHT22;11524;50.846;4.326;2022-12-07T03:31:45;15.40;61.30
22714;DHT22;11524;50.846;4.326;2022-12-07T03:34:26;15.50;61.80
22714;DHT22;11524;50.846;4.326;2022-12-07T03:39:38;15.40;61.60
22714;DHT22;11524;50.846;4.326;2022-12-07T03:42:05;15.50;61.50
22714;DHT22;11524;50.846;4.326;2022-12-07T03:44:34;15.40;61.80
22714;DHT22;11524;50.846;4.326;2022-12-07T03:47:24;15.50;61.50
22714;DHT22;11524;50.846;4.326;2022-12-07T03:49:58;15.40;61.40
22714;DHT22;11524;50.846;4.326;2022-12-07T03:55:20;15.40;61.30
22714;DHT22;11524;50.846;4.326;2022-12-07T03:57:50;15.40;60.90
22714;DHT22;11524;50.846;4.326;2022-12-07T04:00:18;15.30;61.40
22714;DHT22;11524;50.846;4.326;2022-12-07T04:02:44;15.30;61.50
22714;DHT22;11524;50.846;4.326;2022-12-07T04:05:10;15.40;61.60
22714;DHT22;11524;50.846;4.326;2022-12-07T04:07:37;15.40;62.30
22714;DHT22;11524;50.846;4.326;2022-12-07T04:10:04;15.30;61.30
22714;DHT22;11524;50.846;4.326;2022-12-07T04:12:30;15.30;61.10
22714;DHT22;11524;50.846;4.326;2022-12-07T04:14:55;15.30;61.60
22714;DHT22;11524;50.846;4.326;2022-12-07T04:17:21;15.30;61.60
22714;DHT22;11524;50.846;4.326;2022-12-07T04:19:46;15.30;61.30
22714;DHT22;11524;50.846;4.326;2022-12-07T04:22:12;15.30;60.90
22714;DHT22;11524;50.846;4.326;2022-12-07T04:24:38;15.30;60.90
22714;DHT22;11524;50.846;4.326;2022-12-07T04:27:04;15.30;60.90
22714;DHT22;11524;50.846;4.326;2022-12-07T04:29:30;15.30;61.10
22714;DHT22;11524;50.846;4.326;2022-12-07T04:31:55;15.20;60.90
22714;DHT22;11524;50.846;4.326;2022-12-07T04:34:21;15.30;61.30
22714;DHT22;11524;50.846;4.326;2022-12-07T04:36:47;15.20;61.30
22714;DHT22;11524;50.846;4.326;2022-12-07T04:39:25;15.30;61.60
22714;DHT22;11524;50.846;4.326;2022-12-07T04:41:51;15.20;61.60
22714;DHT22;11524;50.846;4.326;2022-12-07T04:44:18;15.20;61.40
22714;DHT22;11524;50.846;4.326;2022-12-07T04:46:44;15.30;61.70
22714;DHT22;11524;50.846;4.326;2022-12-07T04:49:10;15.20;61.60
22714;DHT22;11524;50.846;4.326;2022-12-07T04:51:36;15.30;61.40
22714;DHT22;11524;50.846;4.326;2022-12-07T04:54:01;15.30;62.20
22714;DHT22;11524;50.846;4.326;2022-12-07T04:56:27;15.20;61.90
22714;DHT22;11524;50.846;4.326;2022-12-07T04:58:54;15.30;61.20
22714;DHT22;11524;50.846;4.326;2022-12-07T05:01:20;15.20;61.20
22714;DHT22;11524;50.846;4.326;2022-12-07T05:03:46;15.20;60.90
22714;DHT22;11524;50.846;4.326;2022-12-07T05:06:12;15.20;61.40
22714;DHT22;11524;50.846;4.326;2022-12-07T05:08:38;15.10;61.30
22714;DHT22;11524;50.846;4.326;2022-12-07T05:11:05;15.10;61.20
22714;DHT22;11524;50.846;4.326;2022-12-07T05:13:32;15.20;61.30
22714;DHT22;11524;50.846;4.326;2022-12-07T05:15:58;15.20;61.50
22714;DHT22;11524;50.846;4.326;2022-12-07T05:18:23;15.10;61.60
22714;DHT22;11524;50.846;4.326;2022-12-07T05:20:49;15.20;61.80
22714;DHT22;11524;50.846;4.326;2022-12-07T05:23:17;15.10;61.40
22714;DHT22;11524;50.846;4.326;2022-12-07T05:25:43;15.30;61.40
22714;DHT22;11524;50.846;4.326;2022-12-07T05:28:10;15.20;61.80
22714;DHT22;11524;50.846;4.326;2022-12-07T05:30:36;15.10;61.40
22714;DHT22;11524;50.846;4.326;2022-12-07T05:33:02;15.20;61.40
22714;DHT22;11524;50.846;4.326;2022-12-07T05:35:28;15.10;61.20
22714;DHT22;11524;50.846;4.326;2022-12-07T05:37:55;15.10;61.40
22714;DHT22;11524;50.846;4.326;2022-12-07T05:40:20;15.10;61.20
22714;DHT22;11524;50.846;4.326;2022-12-07T05:42:46;15.10;61.90
22714;DHT22;11524;50.846;4.326;2022-12-07T05:45:12;15.10;61.10
22714;DHT22;11524;50.846;4.326;2022-12-07T05:47:38;15.20;61.60
22714;DHT22;11524;50.846;4.326;2022-12-07T05:50:04;15.10;61.30
22714;DHT22;11524;50.846;4.326;2022-12-07T05:52:30;15.10;61.30
22714;DHT22;11524;50.846;4.326;2022-12-07T05:54:55;15.10;61.30
22714;DHT22;11524;50.846;4.326;2022-12-07T05:57:21;15.00;61.40
22714;DHT22;11524;50.846;4.326;2022-12-07T05:59:46;15.10;62.00
22714;DHT22;11524;50.846;4.326;2022-12-07T06:02:14;15.10;61.20
22714;DHT22;11524;50.846;4.326;2022-12-07T06:04:44;15.00;61.10
22714;DHT22;11524;50.846;4.326;2022-12-07T06:07:11;15.00;61.00
22714;DHT22;11524;50.846;4.326;2022-12-07T06:09:37;15.00;61.10
22714;DHT22;11524;50.846;4.326;2022-12-07T06:12:03;15.10;61.30
22714;DHT22;11524;50.846;4.326;2022-12-07T06:14:48;15.00;61.00
22714;DHT22;11524;50.846;4.326;2022-12-07T06:17:14;15.00;61.40
22714;DHT22;11524;50.846;4.326;2022-12-07T06:19:40;15.00;61.00
22714;DHT22;11524;50.846;4.326;2022-12-07T06:22:06;15.10;61.00
22714;DHT22;11524;50.846;4.326;2022-12-07T06:24:33;15.00;61.10
22714;DHT22;11524;50.846;4.326;2022-12-07T06:26:59;15.00;61.30
22714;DHT22;11524;50.846;4.326;2022-12-07T06:29:24;15.00;61.20
22714;DHT22;11524;50.846;4.326;2022-12-07T06:31:50;15.10;60.70
22714;DHT22;11524;50.846;4.326;2022-12-07T06:34:18;15.40;59.80
22714;DHT22;11524;50.846;4.326;2022-12-07T06:36:43;15.40;59.10
22714;DHT22;11524;50.846;4.326;2022-12-07T06:39:09;15.60;59.20
22714;DHT22;11524;50.846;4.326;2022-12-07T06:41:39;15.70;58.70
22714;DHT22;11524;50.846;4.326;2022-12-07T06:44:05;15.80;58.20
22714;DHT22;11524;50.846;4.326;2022-12-07T06:46:31;16.00;57.80
22714;DHT22;11524;50.846;4.326;2022-12-07T06:48:56;16.00;57.30
22714;DHT22;11524;50.846;4.326;2022-12-07T06:51:22;16.10;56.80
22714;DHT22;11524;50.846;4.326;2022-12-07T06:53:48;16.20;57.20
22714;DHT22;11524;50.846;4.326;2022-12-07T06:56:14;16.30;56.00
22714;DHT22;11524;50.846;4.326;2022-12-07T06:58:40;16.30;56.10
22714;DHT22;11524;50.846;4.326;2022-12-07T07:01:16;16.30;55.80
22714;DHT22;11524;50.846;4.326;2022-12-07T07:03:42;16.30;56.00
22714;DHT22;11524;50.846;4.326;2022-12-07T07:06:09;16.40;56.10
22714;DHT22;11524;50.846;4.326;2022-12-07T07:08:35;16.30;55.90
22714;DHT22;11524;50.846;4.326;2022-12-07T07:11:01;16.30;56.10
22714;DHT22;11524;50.846;4.326;2022-12-07T07:13:27;16.30;55.90
22714;DHT22;11524;50.846;4.326;2022-12-07T07:15:53;16.30;55.70
22714;DHT22;11524;50.846;4.326;2022-12-07T07:18:19;16.30;55.70
22714;DHT22;11524;50.846;4.326;2022-12-07T07:20:44;16.20;55.90
22714;DHT22;11524;50.846;4.326;2022-12-07T07:23:10;16.20;56.20
22714;DHT22;11524;50.846;4.326;2022-12-07T07:25:36;16.20;56.00
22714;DHT22;11524;50.846;4.326;2022-12-07T07:28:01;16.30;55.90
22714;DHT22;11524;50.846;4.326;2022-12-07T07:30:27;16.10;55.90
22714;DHT22;11524;50.846;4.326;2022-12-07T07:32:57;16.10;56.00
22714;DHT22;11524;50.846;4.326;2022-12-07T07:35:23;16.00;55.90
22714;DHT22;11524;50.846;4.326;2022-12-07T07:37:49;16.00;56.50
22714;DHT22;11524;50.846;4.326;2022-12-07T07:40:15;15.90;56.50
22714;DHT22;11524;50.846;4.326;2022-12-07T07:42:40;15.90;56.60
22714;DHT22;11524;50.846;4.326;2022-12-07T07:45:06;15.80;56.60
22714;DHT22;11524;50.846;4.326;2022-12-07T07:47:32;15.80;57.00
22714;DHT22;11524;50.846;4.326;2022-12-07T07:49:58;15.80;56.90
22714;DHT22;11524;50.846;4.326;2022-12-07T07:52:23;16.10;55.20
22714;DHT22;11524;50.846;4.326;2022-12-07T07:54:49;16.50;52.90
22714;DHT22;11524;50.846;4.326;2022-12-07T07:57:16;16.40;53.00
22714;DHT22;11524;50.846;4.326;2022-12-07T07:59:42;16.40;54.10
22714;DHT22;11524;50.846;4.326;2022-12-07T08:02:14;16.40;55.90
22714;DHT22;11524;50.846;4.326;2022-12-07T08:04:40;16.30;54.90
22714;DHT22;11524;50.846;4.326;2022-12-07T08:07:05;16.30;55.10
22714;DHT22;11524;50.846;4.326;2022-12-07T08:09:31;16.40;55.20
22714;DHT22;11524;50.846;4.326;2022-12-07T08:11:57;16.40;55.40
22714;DHT22;11524;50.846;4.326;2022-12-07T08:14:23;16.40;55.20
22714;DHT22;11524;50.846;4.326;2022-12-07T08:16:49;16.40;55.90
22714;DHT22;11524;50.846;4.326;2022-12-07T08:19:15;16.40;55.90
22714;DHT22;11524;50.846;4.326;2022-12-07T08:21:40;16.30;56.10
22714;DHT22;11524;50.846;4.326;2022-12-07T08:24:06;16.40;56.10
22714;DHT22;11524;50.846;4.326;2022-12-07T08:26:31;16.40;56.60
22714;DHT22;11524;50.846;4.326;2022-12-07T08:28:57;16.40;56.90
22714;DHT22;11524;50.846;4.326;2022-12-07T08:31:23;16.40;56.80
22714;DHT22;11524;50.846;4.326;2022-12-07T08:33:49;16.40;57.00
22714;DHT22;11524;50.846;4.326;2022-12-07T08:36:16;16.40;56.90
22714;DHT22;11524;50.846;4.326;2022-12-07T08:38:42;16.40;57.10
22714;DHT22;11524;50.846;4.326;2022-12-07T08:41:08;16.40;56.90
22714;DHT22;11524;50.846;4.326;2022-12-07T08:43:35;16.30;57.00
22714;DHT22;11524;50.846;4.326;2022-12-07T08:46:21;16.30;58.10
22714;DHT22;11524;50.846;4.326;2022-12-07T08:48:54;16.30;56.70
22714;DHT22;11524;50.846;4.326;2022-12-07T08:51:21;16.20;57.70
22714;DHT22;11524;50.846;4.326;2022-12-07T08:53:49;16.20;57.30
22714;DHT22;11524;50.846;4.326;2022-12-07T08:56:15;16.10;57.20
22714;DHT22;11524;50.846;4.326;2022-12-07T08:58:41;16.10;59.10
22714;DHT22;11524;50.846;4.326;2022-12-07T09:01:07;16.20;60.10
22714;DHT22;11524;50.846;4.326;2022-12-07T09:03:33;16.20;58.20
22714;DHT22;11524;50.846;4.326;2022-12-07T09:05:59;16.10;58.20
22714;DHT22;11524;50.846;4.326;2022-12-07T09:08:29;16.20;58.20
22714;DHT22;11524;50.846;4.326;2022-12-07T09:10:56;16.20;57.90
22714;DHT22;11524;50.846;4.326;2022-12-07T09:13:22;16.20;58.00
22714;DHT22;11524;50.846;4.326;2022-12-07T09:15:48;16.20;58.20
22714;DHT22;11524;50.846;4.326;2022-12-07T09:18:13;16.20;58.00
22714;DHT22;11524;50.846;4.326;2022-12-07T09:20:39;16.20;57.70
22714;DHT22;11524;50.846;4.326;2022-12-07T09:23:06;16.20;57.90
22714;DHT22;11524;50.846;4.326;2022-12-07T09:25:33;16.20;57.50
22714;DHT22;11524;50.846;4.326;2022-12-07T09:27:58;16.20;57.30
22714;DHT22;11524;50.846;4.326;2022-12-07T09:30:25;16.30;57.60
22714;DHT22;11524;50.846;4.326;2022-12-07T09:32:53;16.20;57.70
22714;DHT22;11524;50.846;4.326;2022-12-07T09:35:19;16.20;57.70
22714;DHT22;11524;50.846;4.326;2022-12-07T09:37:44;16.20;57.80
22714;DHT22;11524;50.846;4.326;2022-12-07T09:40:11;16.20;58.10
22714;DHT22;11524;50.846;4.326;2022-12-07T09:42:43;16.20;58.10
22714;DHT22;11524;50.846;4.326;2022-12-07T09:45:18;16.20;57.70
22714;DHT22;11524;50.846;4.326;2022-12-07T09:47:45;16.10;58.00
22714;DHT22;11524;50.846;4.326;2022-12-07T09:50:16;16.20;57.80
22714;DHT22;11524;50.846;4.326;2022-12-07T09:52:45;16.20;57.50
22714;DHT22;11524;50.846;4.326;2022-12-07T09:55:16;16.20;57.20
22714;DHT22;11524;50.846;4.326;2022-12-07T09:57:43;16.20;57.20
22714;DHT22;11524;50.846;4.326;2022-12-07T10:00:14;16.30;56.90
22714;DHT22;11524;50.846;4.326;2022-12-07T10:02:59;16.30;57.30
22714;DHT22;11524;50.846;4.326;2022-12-07T10:07:59;16.30;57.10
22714;DHT22;11524;50.846;4.326;2022-12-07T10:10:29;16.30;56.70
22714;DHT22;11524;50.846;4.326;2022-12-07T10:13:01;16.30;57.20
22714;DHT22;11524;50.846;4.326;2022-12-07T10:20:45;16.30;56.70
22714;DHT22;11524;50.846;4.326;2022-12-07T10:23:16;16.30;57.10
22714;DHT22;11524;50.846;4.326;2022-12-07T10:25:42;16.30;57.10
22714;DHT22;11524;50.846;4.326;2022-12-07T10:30:49;16.30;57.20
22714;DHT22;11524;50.846;4.326;2022-12-07T10:33:37;16.30;57.20
22714;DHT22;11524;50.846;4.326;2022-12-07T10:36:18;16.30;56.90
22714;DHT22;11524;50.846;4.326;2022-12-07T10:38:49;16.30;56.90
22714;DHT22;11524;50.846;4.326;2022-12-07T10:41:15;16.30;57.20
22714;DHT22;11524;50.846;4.326;2022-12-07T10:43:50;16.30;57.10
22714;DHT22;11524;50.846;4.326;2022-12-07T10:54:48;16.40;56.50
22714;DHT22;11524;50.846;4.326;2022-12-07T10:57:26;16.40;57.10
22714;DHT22;11524;50.846;4.326;2022-12-07T11:00:22;16.30;57.00
22714;DHT22;11524;50.846;4.326;2022-12-07T11:03:23;16.30;57.10
22714;DHT22;11524;50.846;4.326;2022-12-07T11:06:14;16.30;57.20
22714;DHT22;11524;50.846;4.326;2022-12-07T11:11:09;16.30;57.00
22714;DHT22;11524;50.846;4.326;2022-12-07T11:24:34;16.40;57.40
22714;DHT22;11524;50.846;4.326;2022-12-07T11:30:08;16.40;57.90
22714;DHT22;11524;50.846;4.326;2022-12-07T11:32:49;16.40;57.30
22714;DHT22;11524;50.846;4.326;2022-12-07T11:35:33;16.40;57.20
22714;DHT22;11524;50.846;4.326;2022-12-07T11:38:12;16.40;57.20
22714;DHT22;11524;50.846;4.326;2022-12-07T11:40:45;16.40;57.30
22714;DHT22;11524;50.846;4.326;2022-12-07T11:43:28;16.40;57.20
22714;DHT22;11524;50.846;4.326;2022-12-07T11:46:05;16.40;56.90
22714;DHT22;11524;50.846;4.326;2022-12-07T11:48:40;16.40;57.10
22714;DHT22;11524;50.846;4.326;2022-12-07T11:51:11;16.40;57.10
22714;DHT22;11524;50.846;4.326;2022-12-07T11:53:50;16.50;57.10
22714;DHT22;11524;50.846;4.326;2022-12-07T11:56:21;16.50;57.10
22714;DHT22;11524;50.846;4.326;2022-12-07T12:03:53;16.50;57.00
22714;DHT22;11524;50.846;4.326;2022-12-07T12:06:21;16.60;57.00
22714;DHT22;11524;50.846;4.326;2022-12-07T12:22:26;16.60;56.50
22714;DHT22;11524;50.846;4.326;2022-12-07T12:24:54;16.70;56.50
22714;DHT22;11524;50.846;4.326;2022-12-07T12:27:27;16.70;56.50
22714;DHT22;11524;50.846;4.326;2022-12-07T12:30:01;16.60;56.30
22714;DHT22;11524;50.846;4.326;2022-12-07T12:32:36;16.60;56.50
22714;DHT22;11524;50.846;4.326;2022-12-07T12:35:28;16.70;56.20
22714;DHT22;11524;50.846;4.326;2022-12-07T12:37:55;16.70;56.10
22714;DHT22;11524;50.846;4.326;2022-12-07T12:42:53;16.70;56.20
22714;DHT22;11524;50.846;4.326;2022-12-07T12:45:28;16.70;55.80
22714;DHT22;11524;50.846;4.326;2022-12-07T12:50:31;16.70;56.20
22714;DHT22;11524;50.846;4.326;2022-12-07T12:53:20;16.80;56.20
22714;DHT22;11524;50.846;4.326;2022-12-07T12:56:23;16.60;56.30
22714;DHT22;11524;50.846;4.326;2022-12-07T13:02:25;16.60;56.40
22714;DHT22;11524;50.846;4.326;2022-12-07T13:15:54;16.80;56.30
22714;DHT22;11524;50.846;4.326;2022-12-07T13:23:34;16.80;56.10
22714;DHT22;11524;50.846;4.326;2022-12-07T13:31:46;16.80;56.10
22714;DHT22;11524;50.846;4.326;2022-12-07T13:37:01;16.70;56.00
22714;DHT22;11524;50.846;4.326;2022-12-07T13:39:28;16.70;56.30
22714;DHT22;11524;50.846;4.326;2022-12-07T13:42:11;16.70;56.20
22714;DHT22;11524;50.846;4.326;2022-12-07T13:44:40;16.70;56.10
22714;DHT22;11524;50.846;4.326;2022-12-07T13:49:56;16.70;56.10
22714;DHT22;11524;50.846;4.326;2022-12-07T13:52:30;16.70;56.10
22714;DHT22;11524;50.846;4.326;2022-12-07T13:55:21;16.70;56.00
22714;DHT22;11524;50.846;4.326;2022-12-07T13:57:49;16.70;56.00
22714;DHT22;11524;50.846;4.326;2022-12-07T14:00:20;16.70;56.00
22714;DHT22;11524;50.846;4.326;2022-12-07T14:03:04;16.70;56.00
22714;DHT22;11524;50.846;4.326;2022-12-07T14:05:45;16.70;55.90
22714;DHT22;11524;50.846;4.326;2022-12-07T14:10:41;16.70;56.10
22714;DHT22;11524;50.846;4.326;2022-12-07T14:15:53;16.70;55.80
22714;DHT22;11524;50.846;4.326;2022-12-07T14:18:34;16.70;55.80
22714;DHT22;11524;50.846;4.326;2022-12-07T14:23:37;16.70;55.80
22714;DHT22;11524;50.846;4.326;2022-12-07T14:26:12;16.60;55.70
22714;DHT22;11524;50.846;4.326;2022-12-07T14:28:42;16.70;56.20
22714;DHT22;11524;50.846;4.326;2022-12-07T14:31:12;16.60;56.00
22714;DHT22;11524;50.846;4.326;2022-12-07T14:33:39;16.70;56.20
22714;DHT22;11524;50.846;4.326;2022-12-07T14:36:05;16.60;56.10
22714;DHT22;11524;50.846;4.326;2022-12-07T14:38:31;16.70;56.10
22714;DHT22;11524;50.846;4.326;2022-12-07T14:40:57;16.70;55.90
22714;DHT22;11524;50.846;4.326;2022-12-07T14:43:42;16.70;56.00
22714;DHT22;11524;50.846;4.326;2022-12-07T14:46:09;16.70;55.90
22714;DHT22;11524;50.846;4.326;2022-12-07T14:48:34;16.70;55.70
22714;DHT22;11524;50.846;4.326;2022-12-07T14:51:00;16.70;56.30
22714;DHT22;11524;50.846;4.326;2022-12-07T14:53:30;16.80;56.10
22714;DHT22;11524;50.846;4.326;2022-12-07T14:55:57;16.60;56.40
22714;DHT22;11524;50.846;4.326;2022-12-07T14:58:22;16.70;56.50
22714;DHT22;11524;50.846;4.326;2022-12-07T15:00:48;16.70;56.70
22714;DHT22;11524;50.846;4.326;2022-12-07T15:03:14;16.60;56.60
22714;DHT22;11524;50.846;4.326;2022-12-07T15:05:40;16.60;56.40
22714;DHT22;11524;50.846;4.326;2022-12-07T15:08:06;16.60;56.50
22714;DHT22;11524;50.846;4.326;2022-12-07T15:10:34;16.70;56.80
22714;DHT22;11524;50.846;4.326;2022-12-07T15:13:03;16.60;56.30
22714;DHT22;11524;50.846;4.326;2022-12-07T15:15:49;16.60;56.30
22714;DHT22;11524;50.846;4.326;2022-12-07T15:18:15;16.60;56.20
22714;DHT22;11524;50.846;4.326;2022-12-07T15:20:41;16.50;57.00
22714;DHT22;11524;50.846;4.326;2022-12-07T15:23:07;16.60;55.10
22714;DHT22;11524;50.846;4.326;2022-12-07T15:25:32;16.60;55.10
22714;DHT22;11524;50.846;4.326;2022-12-07T15:27:58;16.50;56.00
22714;DHT22;11524;50.846;4.326;2022-12-07T15:30:24;16.50;56.20
22714;DHT22;11524;50.846;4.326;2022-12-07T15:32:50;16.70;56.30
22714;DHT22;11524;50.846;4.326;2022-12-07T15:35:16;16.80;55.40
22714;DHT22;11524;50.846;4.326;2022-12-07T15:37:41;16.70;56.10
22714;DHT22;11524;50.846;4.326;2022-12-07T15:40:08;16.70;56.40
22714;DHT22;11524;50.846;4.326;2022-12-07T15:42:35;16.60;56.40
22714;DHT22;11524;50.846;4.326;2022-12-07T15:45:00;16.60;56.40
22714;DHT22;11524;50.846;4.326;2022-12-07T15:47:30;16.60;56.30
22714;DHT22;11524;50.846;4.326;2022-12-07T15:49:56;16.60;56.60
22714;DHT22;11524;50.846;4.326;2022-12-07T15:52:21;16.60;56.50
22714;DHT22;11524;50.846;4.326;2022-12-07T15:54:47;16.60;56.70
22714;DHT22;11524;50.846;4.326;2022-12-07T15:57:13;16.60;56.50
22714;DHT22;11524;50.846;4.326;2022-12-07T15:59:39;16.50;56.50
22714;DHT22;11524;50.846;4.326;2022-12-07T16:02:05;16.40;58.20
22714;DHT22;11524;50.846;4.326;2022-12-07T16:04:30;16.30;58.80
22714;DHT22;11524;50.846;4.326;2022-12-07T16:06:56;16.40;59.40
22714;DHT22;11524;50.846;4.326;2022-12-07T16:09:21;16.30;59.20
22714;DHT22;11524;50.846;4.326;2022-12-07T16:11:47;16.30;59.70
22714;DHT22;11524;50.846;4.326;2022-12-07T16:14:13;16.20;59.40
22714;DHT22;11524;50.846;4.326;2022-12-07T16:16:39;16.20;59.40
22714;DHT22;11524;50.846;4.326;2022-12-07T16:19:05;16.10;59.30
22714;DHT22;11524;50.846;4.326;2022-12-07T16:21:31;16.10;59.30
22714;DHT22;11524;50.846;4.326;2022-12-07T16:23:59;16.10;59.10
22714;DHT22;11524;50.846;4.326;2022-12-07T16:26:25;16.10;59.50
22714;DHT22;11524;50.846;4.326;2022-12-07T16:28:52;16.10;58.80
22714;DHT22;11524;50.846;4.326;2022-12-07T16:31:20;16.10;59.10
22714;DHT22;11524;50.846;4.326;2022-12-07T16:33:47;16.10;58.90
22714;DHT22;11524;50.846;4.326;2022-12-07T16:36:14;16.30;58.30
22714;DHT22;11524;50.846;4.326;2022-12-07T16:38:41;16.40;58.00
22714;DHT22;11524;50.846;4.326;2022-12-07T16:41:08;16.60;57.50
22714;DHT22;11524;50.846;4.326;2022-12-07T16:43:34;16.60;57.40
22714;DHT22;11524;50.846;4.326;2022-12-07T16:46:00;16.80;57.10
22714;DHT22;11524;50.846;4.326;2022-12-07T16:48:25;16.80;56.60
22714;DHT22;11524;50.846;4.326;2022-12-07T16:50:51;16.90;56.70
22714;DHT22;11524;50.846;4.326;2022-12-07T16:53:20;17.00;56.40
22714;DHT22;11524;50.846;4.326;2022-12-07T16:55:46;17.00;56.30
22714;DHT22;11524;50.846;4.326;2022-12-07T16:58:13;17.00;56.40
22714;DHT22;11524;50.846;4.326;2022-12-07T17:00:39;17.20;56.50
22714;DHT22;11524;50.846;4.326;2022-12-07T17:03:05;17.10;56.70
22714;DHT22;11524;50.846;4.326;2022-12-07T17:05:31;17.10;56.40
22714;DHT22;11524;50.846;4.326;2022-12-07T17:07:56;17.10;56.70
22714;DHT22;11524;50.846;4.326;2022-12-07T17:10:22;17.10;56.80
22714;DHT22;11524;50.846;4.326;2022-12-07T17:12:49;17.10;56.70
22714;DHT22;11524;50.846;4.326;2022-12-07T17:15:15;17.10;57.30
22714;DHT22;11524;50.846;4.326;2022-12-07T17:17:51;17.00;57.90
22714;DHT22;11524;50.846;4.326;2022-12-07T17:20:17;17.00;58.00
22714;DHT22;11524;50.846;4.326;2022-12-07T17:22:43;16.90;57.90
22714;DHT22;11524;50.846;4.326;2022-12-07T17:25:09;16.90;58.30
22714;DHT22;11524;50.846;4.326;2022-12-07T17:27:35;16.80;58.70
22714;DHT22;11524;50.846;4.326;2022-12-07T17:30:00;16.80;58.30
22714;DHT22;11524;50.846;4.326;2022-12-07T17:32:26;16.80;58.30
22714;DHT22;11524;50.846;4.326;2022-12-07T17:34:52;16.70;58.70
22714;DHT22;11524;50.846;4.326;2022-12-07T17:37:17;16.70;58.30
22714;DHT22;11524;50.846;4.326;2022-12-07T17:39:43;16.70;58.30
22714;DHT22;11524;50.846;4.326;2022-12-07T17:42:09;16.70;58.50
22714;DHT22;11524;50.846;4.326;2022-12-07T17:44:53;16.60;58.10
22714;DHT22;11524;50.846;4.326;2022-12-07T17:47:18;16.60;58.60
22714;DHT22;11524;50.846;4.326;2022-12-07T17:49:46;16.60;58.60
22714;DHT22;11524;50.846;4.326;2022-12-07T17:52:12;16.60;58.60